createdAt,value
2022-09-15T00:03:27.050Z,5.80
2022-09-15T00:08:30.387Z,5.80
2022-09-15T00:13:34.623Z,6.10
2022-09-15T00:18:39.090Z,6.10
2022-09-15T00:23:42.623Z,5.70
2022-09-15T00:28:46.346Z,6.30
2022-09-15T00:33:51.629Z,5.80
2022-09-15T00:38:55.346Z,5.40
2022-09-15T00:44:06.690Z,6.10
2022-09-15T00:49:21.324Z,6.10
2022-09-15T00:54:39.679Z,6.60
2022-09-15T00:59:44.677Z,5.70
2022-09-15T01:04:49.114Z,5.50
2022-09-15T01:10:00.120Z,5.70
2022-09-15T01:15:03.972Z,5.70
2022-09-15T01:20:26.777Z,6.10
2022-09-15T01:26:03.864Z,5.50
2022-09-15T01:31:35.391Z,5.40
2022-09-15T01:36:48.720Z,5.80
2022-09-15T01:42:02.417Z,5.60
2022-09-15T01:47:12.322Z,6.00
2022-09-15T01:52:18.364Z,6.00
2022-09-15T01:57:23.399Z,5.80
2022-09-15T02:02:39.726Z,5.50
2022-09-15T02:08:16.340Z,5.70
2022-09-15T02:13:35.308Z,5.10
2022-09-15T02:18:54.988Z,5.20
2022-09-15T02:24:06.848Z,5.30
2022-09-15T02:29:14.462Z,5.20
2022-09-15T02:34:24.927Z,6.40
2022-09-15T02:39:33.385Z,5.60
2022-09-15T02:44:37.424Z,5.70
2022-09-15T02:49:40.567Z,6.40
2022-09-15T02:54:43.972Z,5.80
2022-09-15T03:00:06.157Z,6.00
2022-09-15T03:05:11.251Z,6.30
2022-09-15T03:10:14.969Z,6.40
2022-09-15T03:15:21.857Z,5.30
2022-09-15T03:20:30.529Z,6.90
2022-09-15T03:25:34.286Z,6.30
2022-09-15T03:30:37.448Z,6.60
2022-09-15T03:35:40.681Z,7.00
2022-09-15T03:40:44.153Z,7.00
2022-09-15T03:45:47.946Z,5.80
2022-09-15T03:50:51.478Z,7.80
2022-09-15T03:55:54.646Z,5.90
2022-09-15T04:00:57.934Z,6.00
2022-09-15T04:06:01.373Z,5.90
2022-09-15T04:11:06.496Z,6.40
2022-09-15T04:16:15.891Z,6.60
2022-09-15T04:21:22.148Z,6.10
2022-09-15T04:26:34.962Z,5.10
2022-09-15T04:31:38.712Z,6.00
2022-09-15T04:36:43.032Z,6.50
2022-09-15T04:41:46.506Z,6.00
2022-09-15T04:46:49.890Z,6.40
2022-09-15T04:51:56.744Z,7.40
2022-09-15T04:56:59.871Z,6.90
2022-09-15T05:02:03.627Z,8.30
2022-09-15T05:07:06.860Z,7.00
2022-09-15T05:12:10.022Z,6.90
2022-09-15T05:17:13.229Z,6.30
2022-09-15T05:22:16.530Z,7.70
2022-09-15T05:27:19.953Z,7.60
2022-09-15T05:32:23.479Z,7.20
2022-09-15T05:37:27.093Z,6.50
2022-09-15T05:42:32.282Z,8.00
2022-09-15T05:47:35.644Z,7.80
2022-09-15T05:52:39.030Z,6.40
2022-09-15T05:57:42.274Z,8.40
2022-09-15T06:02:45.502Z,6.50
2022-09-15T06:07:48.761Z,6.60
2022-09-15T06:13:15.662Z,6.50
2022-09-15T06:18:18.893Z,6.30
2022-09-15T06:23:22.077Z,5.90
2022-09-15T06:28:25.529Z,5.20
2022-09-15T06:33:28.846Z,5.60
2022-09-15T06:38:32.603Z,4.90
2022-09-15T06:43:36.755Z,4.20
2022-09-15T06:48:48.104Z,4.10
2022-09-15T06:53:54.177Z,6.00
2022-09-15T06:58:58.061Z,6.50
2022-09-15T07:04:10.268Z,4.10
2022-09-15T07:09:14.023Z,3.30
2022-09-15T07:14:17.395Z,3.10
2022-09-15T07:19:20.757Z,3.30
2022-09-15T07:24:23.974Z,3.00
2022-09-15T07:29:27.773Z,3.10
2022-09-15T07:34:34.815Z,2.80
2022-09-15T07:39:37.956Z,3.10
2022-09-15T07:44:41.279Z,3.30
2022-09-15T07:49:44.581Z,3.10
2022-09-15T07:54:47.746Z,2.90
2022-09-15T07:59:50.876Z,3.00
2022-09-15T08:04:54.035Z,3.20
2022-09-15T08:09:57.502Z,3.20
2022-09-15T08:15:00.652Z,3.40
2022-09-15T08:20:04.407Z,2.40
2022-09-15T08:25:11.092Z,2.50
2022-09-15T08:30:14.563Z,1.50
2022-09-15T08:35:19.177Z,1.60
2022-09-15T08:40:46.303Z,2.90
2022-09-15T08:46:01.372Z,1.80
2022-09-15T08:51:11.228Z,1.20
2022-09-15T08:56:19.048Z,1.80
2022-09-15T09:01:59.873Z,2.00
2022-09-15T09:07:14.868Z,2.20
2022-09-15T09:12:56.836Z,1.90
2022-09-15T09:18:00.033Z,2.00
2022-09-15T09:23:09.305Z,1.40
2022-09-15T09:28:28.463Z,1.90
2022-09-15T09:33:38.711Z,1.50
2022-09-15T09:38:45.524Z,1.40
2022-09-15T09:43:59.654Z,1.90
2022-09-15T09:49:47.472Z,1.40
2022-09-15T09:55:05.553Z,1.30
2022-09-15T10:00:34.752Z,1.30
2022-09-15T10:05:38.227Z,1.20
2022-09-15T10:10:53.531Z,1.40
2022-09-15T10:16:02.747Z,2.10
2022-09-15T10:21:10.002Z,1.50
2022-09-15T10:26:16.288Z,1.10
2022-09-15T10:31:33.323Z,0.80
2022-09-15T10:36:37.791Z,1.00
2022-09-15T10:42:09.270Z,1.80
2022-09-15T10:47:44.112Z,1.50
2022-09-15T10:52:59.368Z,1.40
2022-09-15T10:58:12.753Z,0.80
2022-09-15T11:03:51.211Z,1.30
2022-09-15T11:09:03.948Z,1.50
2022-09-15T11:14:12.935Z,1.20
2022-09-15T11:19:42.846Z,1.30
2022-09-15T11:24:56.034Z,2.30
2022-09-15T11:30:24.029Z,2.10
2022-09-15T11:35:31.894Z,3.30
2022-09-15T11:40:45.104Z,3.80
2022-09-15T11:45:53.930Z,2.00
2022-09-15T11:51:01.971Z,2.70
2022-09-15T11:56:21.078Z,2.40
2022-09-15T12:01:52.955Z,1.40
2022-09-15T12:12:11.615Z,1.00
2022-09-15T12:17:23.703Z,1.70
2022-09-15T12:22:43.810Z,2.10
2022-09-15T12:28:24.508Z,2.30
2022-09-15T12:33:43.769Z,2.40
2022-09-15T12:38:49.872Z,3.40
2022-09-15T12:43:57.806Z,1.50
2022-09-15T12:49:04.218Z,2.90
2022-09-15T12:54:09.168Z,3.30
2022-09-15T12:59:15.379Z,2.80
2022-09-15T13:04:51.361Z,1.80
2022-09-15T13:10:17.340Z,2.20
2022-09-15T13:15:22.997Z,3.10
2022-09-15T13:20:34.618Z,1.70
2022-09-15T13:25:41.033Z,1.80
2022-09-15T13:31:01.174Z,1.20
2022-09-15T13:42:19.709Z,1.00
2022-09-15T13:47:45.676Z,0.90
2022-09-15T13:53:01.669Z,1.10
2022-09-15T14:03:50.848Z,1.20
2022-09-15T14:08:59.162Z,0.90
2022-09-15T14:14:03.311Z,0.80
2022-09-15T14:19:39.960Z,0.70
2022-09-15T14:24:43.733Z,0.80
2022-09-15T14:29:58.057Z,1.00
2022-09-15T14:35:06.740Z,0.80
2022-09-15T14:40:28.232Z,1.20
2022-09-15T14:51:13.678Z,0.60
2022-09-15T14:56:25.446Z,0.90
2022-09-15T15:01:37.443Z,0.70
2022-09-15T15:06:52.937Z,0.70
2022-09-15T15:12:01.186Z,0.70
2022-09-15T15:17:06.933Z,0.60
2022-09-15T15:22:14.562Z,0.70
2022-09-15T15:27:42.512Z,0.80
2022-09-15T15:32:46.167Z,0.90
2022-09-15T15:37:59.713Z,0.60
2022-09-15T15:43:26.548Z,0.60
2022-09-15T15:48:36.842Z,0.60
2022-09-15T15:53:42.423Z,0.70
2022-09-15T15:58:45.763Z,1.40
2022-09-15T16:03:48.958Z,1.00
2022-09-15T16:08:53.374Z,0.70
2022-09-15T16:13:56.730Z,0.60
2022-09-15T16:18:59.962Z,0.70
2022-09-15T16:24:12.063Z,0.80
2022-09-15T16:29:15.170Z,0.90
2022-09-15T16:34:18.830Z,0.60
2022-09-15T16:39:21.969Z,0.70
2022-09-15T16:44:25.133Z,0.60
2022-09-15T16:49:28.563Z,0.70
2022-09-15T16:54:33.423Z,1.50
2022-09-15T16:59:37.476Z,1.90
2022-09-15T17:04:40.666Z,1.40
2022-09-15T17:09:44.631Z,1.50
2022-09-15T17:14:47.886Z,1.30
2022-09-15T17:19:51.094Z,1.90
2022-09-15T17:24:54.378Z,2.00
2022-09-15T17:29:57.665Z,2.00
2022-09-15T17:35:00.827Z,4.00
2022-09-15T17:40:04.213Z,3.50
2022-09-15T17:45:30.679Z,2.30
2022-09-15T17:50:35.977Z,1.50
2022-09-15T17:55:39.964Z,1.60
2022-09-15T18:00:45.038Z,1.20
2022-09-15T18:05:48.878Z,1.90
2022-09-15T18:10:52.620Z,1.60
2022-09-15T18:15:57.164Z,2.20
2022-09-15T18:21:01.269Z,2.00
2022-09-15T18:26:04.579Z,2.80
2022-09-15T18:31:07.789Z,3.70
2022-09-15T18:36:12.274Z,3.90
2022-09-15T18:41:15.453Z,3.90
2022-09-15T18:46:18.866Z,3.70
2022-09-15T18:51:29.146Z,5.10
2022-09-15T18:56:38.830Z,8.00
2022-09-15T19:01:42.107Z,10.60
2022-09-15T19:06:45.830Z,14.00
2022-09-15T19:11:48.985Z,8.50
2022-09-15T19:16:58.007Z,3.20
2022-09-15T19:22:01.778Z,1.90
2022-09-15T19:27:06.912Z,2.10
2022-09-15T19:32:13.677Z,2.90
2022-09-15T19:37:19.404Z,2.10
2022-09-15T19:42:22.614Z,2.20
2022-09-15T19:47:25.877Z,1.90
2022-09-15T19:52:29.445Z,2.40
2022-09-15T19:57:32.596Z,1.90
2022-09-15T20:02:36.024Z,2.50
2022-09-15T20:07:39.203Z,2.70
2022-09-15T20:12:42.363Z,2.80
2022-09-15T20:17:45.733Z,3.50
2022-09-15T20:22:50.291Z,4.80
2022-09-15T20:27:53.533Z,4.70
2022-09-15T20:32:57.509Z,5.20
2022-09-15T20:38:00.891Z,4.10
2022-09-15T20:43:04.107Z,3.60
2022-09-15T20:48:07.362Z,3.10
2022-09-15T20:53:10.510Z,2.60
2022-09-15T20:58:13.716Z,1.90
2022-09-15T21:03:17.045Z,1.70
2022-09-15T21:08:20.342Z,2.10
2022-09-15T21:13:23.825Z,1.50
2022-09-15T21:18:34.804Z,1.70
2022-09-15T21:23:49.824Z,2.10
2022-09-15T21:28:54.763Z,1.60
2022-09-15T21:34:01.263Z,1.50
2022-09-15T21:39:04.546Z,1.50
2022-09-15T21:44:11.671Z,1.30
2022-09-15T21:49:15.056Z,2.10
2022-09-15T21:54:18.408Z,2.10
2022-09-15T21:59:21.846Z,2.00
2022-09-15T22:04:25.062Z,1.90
2022-09-15T22:09:28.228Z,1.80
2022-09-15T22:14:31.787Z,2.20
2022-09-15T22:19:35.470Z,2.40
2022-09-15T22:24:38.759Z,2.50
2022-09-15T22:29:42.102Z,2.30
2022-09-15T22:34:45.858Z,1.90
2022-09-15T22:39:58.891Z,1.50
2022-09-15T22:45:03.263Z,1.80
2022-09-15T22:50:06.839Z,1.70
2022-09-15T22:55:10.076Z,1.50
2022-09-15T23:00:13.766Z,1.80
2022-09-15T23:05:17.106Z,1.20
2022-09-15T23:10:20.245Z,1.40
2022-09-15T23:15:26.636Z,1.20
2022-09-15T23:20:29.828Z,1.50
2022-09-15T23:25:32.989Z,1.00
2022-09-15T23:30:38.551Z,1.60
2022-09-15T23:35:41.777Z,1.30
2022-09-15T23:40:48.628Z,1.40
2022-09-15T23:45:51.904Z,1.40
2022-09-15T23:50:55.404Z,1.40
2022-09-15T23:55:59.044Z,2.00
